Latest Weather Observations for Camooweal

IDQ60801

Issued at 3:02 pm EST Saturday 30 July 2016 (issued every 30 minutes, with the page automatically refreshed every 10 minutes)

About weather observations | Map of weather stations | Latest weather observations for QLD | Other Formats
Station Details ID: 037010 Name: CAMOOWEAL TOWNSHIP Lat: -19.92 Lon: 138.12 Height: 231.2 m
Data from the previous 72 hours. | See also: Recent months at Camooweal
Date/Time
EST
Temp
°C
App
Temp
°C
Dew
Point
°C
Rel
Hum
%
Delta-T
°C
Wind Press
QNH
hPa
Press
MSL
hPa
Rain since
9am
mm
Dir  Spd
km/h
Gust
km/h
Spd
kts
Gust
kts
30/03:00pm 27.7 22.6 -2.2 14 13.6 SSE 15 28 8 15 1016.0 1015.5 0.0
30/02:30pm 27.4 23.5 -1.5 15 13.3 SSE 9 17 5 9 1016.4 1015.9 0.0
30/02:00pm 27.1 22.3 0.0 17 12.8 SSE 15 28 8 15 1016.8 1016.3 0.0
30/01:30pm 25.6 21.4 1.7 21 11.5 SE 13 22 7 12 1017.5 1017.1 0.0
30/01:00pm 25.3 20.2 0.8 20 11.6 SE 17 24 9 13 1018.2 1017.8 0.0
30/12:30pm 25.3 20.5 2.7 23 11.1 SE 17 35 9 19 1018.6 1018.2 0.0
30/12:00pm 24.0 19.5 2.2 24 10.5 ESE 15 20 8 11 1019.0 1018.6 0.0
30/11:30am 23.7 19.0 3.1 26 10.1 ESE 17 24 9 13 1019.4 1019.0 0.0
30/11:00am 22.3 17.4 3.9 30 9.0 ESE 19 24 10 13 1019.8 1019.3 0.0
30/10:30am 21.6 16.1 4.2 32 8.5 E 22 32 12 17 1019.9 1019.4 0.0
30/10:00am 19.7 14.9 5.4 39 7.1 SE 20 28 11 15 1020.1 1019.6 0.0
30/09:30am 17.8 13.6 5.7 45 6.0 SSE 17 24 9 13 1020.3 1019.8 0.0
30/09:00am 16.1 12.2 5.4 49 5.2 SSE 15 19 8 10 1020.1 1019.6 0.0
30/08:30am 11.7 9.4 5.6 66 2.9 SSW 7 11 4 6 1020.0 1019.5 0.0
30/08:00am 8.0 4.8 4.9 81 1.4 S 11 13 6 7 1019.5 1019.1 0.0
30/07:30am 7.0 4.5 3.8 80 1.4 S 6 6 3 3 1019.0 1018.6 0.0
30/07:00am 7.7 5.2 3.6 75 1.8 SSE 6 9 3 5 1019.3 1018.9 0.0
30/06:30am 7.2 4.7 3.6 78 1.6 SSE 6 7 3 4 1018.9 1018.5 0.0
30/06:00am 7.2 4.4 3.1 75 1.7 SW 7 11 4 6 1018.7 1018.3 0.0
30/05:30am 7.4 4.7 3.5 76 1.7 SW 7 13 4 7 1018.5 1018.1 0.0
30/05:00am 7.7 4.9 3.0 72 2.0 S 7 9 4 5 1018.5 1018.1 0.0
30/04:30am 8.0 5.2 3.3 72 2.0 WSW 7 9 4 5 1018.6 1018.2 0.0
30/04:00am 8.4 5.6 3.3 70 2.2 SW 7 9 4 5 1018.6 1018.2 0.0
30/03:30am 9.4 6.7 3.6 67 2.6 SSW 7 9 4 5 1018.6 1018.2 0.0
30/03:00am 10.3 7.5 3.3 62 3.1 SSE 7 9 4 5 1018.6 1018.2 0.0
30/02:30am 10.8 8.3 3.6 61 3.2 S 6 9 3 5 1018.6 1018.2 0.0
30/02:00am 13.1 11.1 4.3 55 4.1 SSE 4 6 2 3 1018.9 1018.5 0.0
30/01:30am 13.7 10.3 3.8 51 4.5 SSE 11 13 6 7 1018.9 1018.5 0.0
30/01:00am 15.0 10.9 4.1 48 5.1 SSE 15 20 8 11 1019.0 1018.6 0.0
30/12:30am 11.8 9.3 3.6 57 3.7 SW 6 7 3 4 1019.0 1018.6 0.0
30/12:00am 16.1 11.8 3.5 43 5.8 SSE 15 20 8 11 1019.0 1018.6 0.0
 
Date/Time
EST
Temp
°C
App
Temp
°C
Dew
Point
°C
Rel
Hum
%
Delta-T
°C
Wind Press
QNH
hPa
Press
MSL
hPa
Rain since
9am
mm
Dir  Spd
km/h
Gust
km/h
Spd
kts
Gust
kts
29/11:30pm 16.6 12.4 3.7 42 6.0 SSE 15 22 8 12 1019.0 1018.6 0.0
29/11:00pm 16.7 12.4 3.1 40 6.3 SSE 15 20 8 11 1019.1 1018.7 0.0
29/10:30pm 17.5 12.7 2.7 37 6.8 SSE 17 20 9 11 1019.1 1018.7 0.0
29/10:00pm 18.2 13.4 2.5 35 7.3 SSE 17 22 9 12 1019.1 1018.7 0.0
29/09:30pm 18.8 14.0 2.6 34 7.6 SSE 17 20 9 11 1019.2 1018.8 0.0
29/09:00pm 18.8 13.9 2.2 33 7.7 S 17 20 9 11 1019.0 1018.6 0.0
29/08:30pm 19.4 14.5 2.3 32 8.0 S 17 22 9 12 1018.7 1018.3 0.0
29/08:00pm 18.0 13.6 2.7 36 7.1 S 15 17 8 9 1018.4 1018.0 0.0
29/07:30pm 19.7 15.0 3.0 33 7.9 S 17 20 9 11 1018.0 1017.6 0.0
29/07:00pm 19.5 15.0 1.9 31 8.1 S 15 17 8 9 1017.7 1017.3 0.0
29/06:30pm 22.9 18.0 1.9 25 10.0 S 17 22 9 12 1017.5 1017.1 0.0
29/06:00pm 24.7 19.2 1.6 22 11.0 S 20 26 11 14 1017.3 1016.9 0.0
29/05:30pm 25.8 19.9 1.8 21 11.6 S 22 28 12 15 1017.1 1016.6 0.0
29/05:00pm 26.6 20.5 0.4 18 12.4 S 22 33 12 18 1017.1 1016.6 0.0
29/04:30pm 26.8 20.8 1.3 19 12.3 SSE 22 30 12 16 1017.1 1016.6 0.0
29/04:00pm 26.9 21.2 0.6 18 12.5 SSE 20 32 11 17 1017.1 1016.6 0.0
29/03:30pm 26.9 21.9 1.3 19 12.4 SSE 17 24 9 13 1017.2 1016.7 0.0
29/03:00pm 26.9 22.4 2.1 20 12.1 S 15 33 8 18 1017.5 1017.1 0.0
29/02:30pm 26.1 21.6 2.1 21 11.7 SE 15 26 8 14 1017.9 1017.5 0.0
29/02:00pm 25.7 20.8 1.8 21 11.5 SSE 17 26 9 14 1018.4 1018.0 0.0
29/01:30pm 25.4 20.5 2.2 22 11.3 SE 17 24 9 13 1018.8 1018.4 0.0
29/01:00pm 24.6 20.2 2.7 24 10.7 SE 15 24 8 13 1019.4 1019.0 0.0
29/12:30pm 23.7 19.2 2.0 24 10.4 SE 15 20 8 11 1020.0 1019.5 0.0
29/12:00pm 22.7 18.5 3.8 29 9.3 SE 15 24 8 13 1020.4 1019.9 0.0
29/11:30am 21.5 16.8 3.2 30 8.8 SE 17 24 9 13 1021.1 1020.7 0.0
29/11:00am 20.2 15.9 5.4 38 7.3 SE 17 24 9 13 1021.3 1020.9 0.0
29/10:30am 18.5 13.7 4.7 40 6.7 SE 19 24 10 13 1021.7 1021.3 0.0
29/10:00am 16.7 12.3 5.0 46 5.6 SSE 17 22 9 12 1021.7 1021.3 0.0
29/09:30am 14.6 11.0 4.9 52 4.6 SSE 13 17 7 9 1021.8 1021.4 0.0
29/09:00am 12.6 8.1 4.3 57 3.8 SSE 17 22 9 12 1021.7 1021.3 0.0
29/08:30am 9.8 6.9 4.8 71 2.3 S 9 13 5 7 1021.7 1021.3 0.0
29/08:00am 6.7 4.0 3.5 80 1.4 SSW 7 11 4 6 1021.7 1021.3 0.0
29/07:30am 5.5 2.2 2.7 82 1.2 SSW 9 11 5 6 1021.5 1021.1 0.0
29/07:00am 5.3 2.0 2.3 81 1.2 SSW 9 11 5 6 1021.2 1020.8 0.0
29/06:30am 5.6 1.9 2.3 79 1.4 SSW 11 13 6 7 1020.9 1020.4 0.0
29/06:00am 5.9 2.3 2.9 81 1.3 SW 11 13 6 7 1020.8 1020.3 0.0
29/05:30am 6.1 2.8 2.6 78 1.5 SW 9 11 5 6 1020.6 1020.1 0.0
29/05:00am 6.6 3.3 2.7 76 1.6 SSW 9 13 5 7 1020.6 1020.1 0.0
29/04:30am 6.4 2.8 2.7 77 1.6 SSW 11 13 6 7 1020.3 1019.8 0.0
29/04:00am 6.9 3.6 2.4 73 1.9 SSW 9 13 5 7 1020.4 1019.9 0.0
29/03:30am 8.0 4.8 3.1 71 2.1 SW 9 11 5 6 1020.4 1019.9 0.0
29/03:00am 8.5 4.9 3.1 69 2.3 SW 11 13 6 7 1020.6 1020.1 0.0
29/02:30am 8.7 5.2 3.3 69 2.3 SSW 11 11 6 6 1020.8 1020.3 0.0
29/02:00am 9.1 5.6 3.3 67 2.5 SW 11 11 6 6 1020.9 1020.4 0.0
29/01:30am 9.9 6.7 3.2 63 2.9 S 9 13 5 7 1021.0 1020.6 0.0
29/01:00am 10.0 6.0 2.8 61 3.1 S 13 15 7 8 1021.2 1020.8 0.0
29/12:30am 11.3 7.3 2.6 55 3.8 S 13 13 7 7 1021.5 1021.1 0.0
29/12:00am 12.9 9.2 2.5 49 4.6 S 11 13 6 7 1021.6 1021.2 0.0
 
Date/Time
EST
Temp
°C
App
Temp
°C
Dew
Point
°C
Rel
Hum
%
Delta-T
°C
Wind Press
QNH
hPa
Press
MSL
hPa
Rain since
9am
mm
Dir  Spd
km/h
Gust
km/h
Spd
kts
Gust
kts
28/11:30pm 14.6 9.8 2.8 45 5.3 SSE 17 20 9 11 1021.6 1021.2 0.0
28/11:00pm 13.9 10.3 2.8 47 5.0 SSE 11 15 6 8 1021.8 1021.4 0.0
28/10:30pm 14.0 9.2 2.6 46 5.1 S 17 19 9 10 1021.9 1021.5 0.0
28/10:00pm 15.5 11.0 2.0 40 6.0 S 15 19 8 10 1021.7 1021.3 0.0
28/09:30pm 17.4 12.4 1.4 34 7.2 S 17 22 9 12 1021.5 1021.1 0.0
28/09:00pm 18.7 12.8 1.7 32 7.8 SSE 22 30 12 16 1021.3 1020.9 0.0
28/08:30pm 19.3 13.3 1.3 30 8.2 SSE 22 32 12 17 1021.0 1020.6 0.0
28/08:00pm 19.2 13.6 1.2 30 8.2 SSE 20 24 11 13 1020.8 1020.3 0.0
28/07:30pm 19.9 14.4 0.9 28 8.6 S 19 24 10 13 1020.7 1020.2 0.0
28/07:00pm 20.9 15.3 0.2 25 9.3 S 19 24 10 13 1020.2 1019.7 0.0
28/06:30pm 21.9 15.7 -0.1 23 10.0 SSE 22 28 12 15 1019.6 1019.2 0.0
28/06:00pm 22.9 16.3 -0.6 21 10.6 SSE 24 33 13 18 1019.5 1019.1 0.0
28/05:30pm 23.8 16.4 -0.5 20 11.1 SSE 28 35 15 19 1019.4 1019.0 0.0
28/05:00pm 24.7 18.9 -0.4 19 11.5 SSE 20 28 11 15 1019.3 1018.9 0.0
28/04:30pm 24.6 17.6 -0.5 19 11.5 SSE 26 35 14 19 1019.1 1018.7 0.0
28/04:00pm 24.9 17.6 -0.3 19 11.6 SSE 28 39 15 21 1019.1 1018.7 0.0
28/03:30pm 25.0 18.2 0.5 20 11.5 S 26 37 14 20 1019.4 1019.0 0.0
28/03:00pm 24.7 18.2 0.3 20 11.4 SSE 24 39 13 21 1019.6 1019.2 0.0
28/02:30pm 24.6 18.3 -1.3 18 11.7 S 22 32 12 17 1020.0 1019.5 0.0
28/02:00pm 24.5 18.6 -0.6 19 11.5 SSE 20 32 11 17 1020.4 1019.9 0.0
28/01:30pm 23.9 17.6 -1.1 19 11.3 SSE 22 30 12 16 1021.0 1020.6 0.0
28/01:00pm 23.9 17.8 0.3 21 10.9 SSE 22 30 12 16 1021.4 1021.0 0.0
28/12:30pm 23.1 17.3 -0.4 21 10.7 SE 20 32 11 17 1021.8 1021.4 0.0
28/12:00pm 22.5 16.9 0.9 24 10.0 SE 20 30 11 16 1022.1 1021.7 0.0
28/11:30am 21.1 15.4 0.3 25 9.4 SE 20 30 11 16 1022.3 1021.9 0.0
28/11:00am 20.6 14.7 2.0 29 8.7 ESE 22 30 12 16 1022.6 1022.2 0.0
28/10:30am 18.8 12.6 2.2 33 7.7 ESE 24 30 13 16 1023.0 1022.6 0.0
28/10:00am 17.8 11.4 3.3 38 6.8 ESE 26 33 14 18 1023.3 1022.9 0.0
28/09:30am 16.0 11.0 4.4 46 5.5 ESE 20 30 11 16 1023.5 1023.1 0.0
28/09:00am 14.2 9.8 4.5 52 4.5 ESE 17 24 9 13 1023.5 1023.1 0.0
28/08:30am 11.7 9.0 5.6 66 2.9 SSE 9 15 5 8 1023.5 1023.1 0.0
28/08:00am 7.2 5.1 3.8 79 1.5 SSW 4 6 2 3 1023.4 1023.0 0.0
28/07:30am 6.4 3.2 3.0 79 1.4 SSW 9 9 5 5 1023.1 1022.7 0.0
28/07:00am 6.3 3.0 2.6 77 1.5 SSW 9 11 5 6 1023.2 1022.8 0.0
28/06:30am 7.0 3.8 2.9 75 1.7 SSW 9 11 5 6 1022.9 1022.5 0.0
28/06:00am 8.6 4.7 3.4 70 2.3 S 13 15 7 8 1022.6 1022.2 0.0
28/05:30am 9.3 5.8 3.3 66 2.6 S 11 15 6 8 1022.7 1022.3 0.0
28/05:00am 9.4 5.5 3.2 65 2.7 SSE 13 15 7 8 1022.8 1022.4 0.0
28/04:30am 10.1 6.2 3.2 62 3.0 S 13 19 7 10 1023.0 1022.6 0.0
28/04:00am 10.4 6.5 3.2 61 3.2 SSE 13 19 7 10 1022.9 1022.5 0.0
28/03:30am 10.8 6.8 3.1 59 3.4 SSE 13 19 7 10 1022.9 1022.5 0.0
28/03:00am 11.3 6.9 2.9 56 3.7 SSE 15 20 8 11 1023.1 1022.7 0.0
28/02:30am 11.5 7.5 3.0 56 3.8 S 13 17 7 9 1023.3 1022.9 0.0
28/02:00am 10.9 6.9 2.7 57 3.6 S 13 17 7 9 1023.1 1022.7 0.0
28/01:30am 10.5 6.4 2.4 57 3.5 S 13 15 7 8 1023.2 1022.8 0.0
28/01:00am 11.3 7.1 1.8 52 4.1 S 13 17 7 9 1023.3 1022.9 0.0
28/12:30am 13.4 8.9 2.0 46 5.0 SSE 15 17 8 9 1023.4 1023.0 0.0
28/12:00am 14.1 9.1 1.4 42 5.5 SSE 17 22 9 12 1023.5 1023.1 0.0
 
Date/Time
EST
Temp
°C
App
Temp
°C
Dew
Point
°C
Rel
Hum
%
Delta-T
°C
Wind Press
QNH
hPa
Press
MSL
hPa
Rain since
9am
mm
Dir  Spd
km/h
Gust
km/h
Spd
kts
Gust
kts
27/11:30pm 13.7 9.0 1.0 42 5.5 S 15 20 8 11 1023.7 1023.3 0.0
27/11:00pm 14.8 9.7 0.6 38 6.1 S 17 19 9 10 1023.6 1023.2 0.0
27/10:30pm 15.6 10.9 0.6 36 6.5 SSE 15 20 8 11 1023.5 1023.1 0.0
27/10:00pm 16.1 10.9 0.3 34 6.8 SSE 17 22 9 12 1023.2 1022.8 0.0
27/09:30pm 16.4 11.2 0.1 33 7.1 SSE 17 20 9 11 1022.8 1022.4 0.0
27/09:00pm 16.6 11.3 -0.6 31 7.3 SSE 17 20 9 11 1022.5 1022.1 0.0
27/08:30pm 17.8 12.6 0.0 30 7.8 SSE 17 22 9 12 1022.2 1021.8 0.0
27/08:00pm 18.5 13.3 0.2 29 8.1 SSE 17 24 9 13 1021.7 1021.3 0.0
27/07:30pm 19.3 13.7 -0.1 27 8.6 SSE 19 24 10 13 1021.2 1020.8 0.0
27/07:00pm 19.9 14.7 -0.1 26 8.9 SSE 17 22 9 12 1020.9 1020.4 0.0
27/06:30pm 21.2 15.5 -0.7 23 9.8 SSE 19 28 10 15 1020.4 1019.9 0.0
27/06:00pm 22.3 15.6 -1.1 21 10.4 SSE 24 35 13 19 1020.1 1019.6 0.0
27/05:30pm 23.1 15.5 -1.8 19 11.0 SSE 28 39 15 21 1019.8 1019.3 0.0
27/05:00pm 23.6 16.1 -1.3 19 11.2 SSE 28 35 15 19 1019.4 1019.0 0.0
27/04:30pm 24.4 17.9 0.0 20 11.3 SSE 24 35 13 19 1019.2 1018.8 0.0
27/04:11pm 23.9 16.4 -1.1 19 11.3 SE 28 48 15 26 1019.2 1018.8 0.0
27/04:00pm 24.2 16.4 -0.9 19 11.4 SSE 30 41 16 22 1019.3 1018.9 0.0
27/03:30pm 24.5 17.1 -0.6 19 11.5 SSE 28 41 15 22 1019.4 1019.0 0.0
27/03:07pm 24.2 16.7 -1.6 18 11.6 SSE 28 52 15 28 1019.4 1019.0 0.0

Other Formats:

Comma delimited format used in spreadsheet applications
http://www.bom.gov.au/fwo/IDQ60801/IDQ60801.94255.axf

JavaScript Object Notation format (JSON) in row-major order
http://www.bom.gov.au/fwo/IDQ60801/IDQ60801.94255.json